sensor_id;sensor_type;location;lat;lon;timestamp;pressure;altitude;pressure_sealevel;temperature
24278;BMP280;12394;42.692;23.314;2023-05-07T00:01:56;95233.25;;;11.88
24278;BMP280;12394;42.692;23.314;2023-05-07T00:04:22;95227.31;;;11.80
24278;BMP280;12394;42.692;23.314;2023-05-07T00:06:47;95217.63;;;11.74
24278;BMP280;12394;42.692;23.314;2023-05-07T00:09:12;95226.59;;;11.76
24278;BMP280;12394;42.692;23.314;2023-05-07T00:11:38;95225.84;;;11.69
24278;BMP280;12394;42.692;23.314;2023-05-07T00:14:03;95216.53;;;11.64
24278;BMP280;12394;42.692;23.314;2023-05-07T00:16:29;95222.13;;;11.70
24278;BMP280;12394;42.692;23.314;2023-05-07T00:18:54;95223.22;;;11.72
24278;BMP280;12394;42.692;23.314;2023-05-07T00:21:20;95216.88;;;11.73
24278;BMP280;12394;42.692;23.314;2023-05-07T00:23:46;95213.16;;;11.67
24278;BMP280;12394;42.692;23.314;2023-05-07T00:26:12;95207.56;;;11.62
24278;BMP280;12394;42.692;23.314;2023-05-07T00:28:37;95223.69;;;11.56
24278;BMP280;12394;42.692;23.314;2023-05-07T00:31:02;95214.72;;;11.57
24278;BMP280;12394;42.692;23.314;2023-05-07T00:33:28;95207.25;;;11.52
24278;BMP280;12394;42.692;23.314;2023-05-07T00:35:53;95173.00;;;11.22
24278;BMP280;12394;42.692;23.314;2023-05-07T00:38:21;95221.09;;;11.49
24278;BMP280;12394;42.692;23.314;2023-05-07T00:40:47;95204.72;;;11.38
24278;BMP280;12394;42.692;23.314;2023-05-07T00:43:12;95218.50;;;11.46
24278;BMP280;12394;42.692;23.314;2023-05-07T00:45:38;95216.31;;;11.37
24278;BMP280;12394;42.692;23.314;2023-05-07T00:48:04;95222.66;;;11.43
24278;BMP280;12394;42.692;23.314;2023-05-07T00:50:29;95224.16;;;11.44
24278;BMP280;12394;42.692;23.314;2023-05-07T00:52:56;95223.78;;;11.42
24278;BMP280;12394;42.692;23.314;2023-05-07T00:55:22;95222.66;;;11.43
24278;BMP280;12394;42.692;23.314;2023-05-07T00:57:49;95215.56;;;11.37
24278;BMP280;12394;42.692;23.314;2023-05-07T01:00:15;95215.56;;;11.40
24278;BMP280;12394;42.692;23.314;2023-05-07T01:02:41;95229.81;;;11.39
24278;BMP280;12394;42.692;23.314;2023-05-07T01:05:09;95217.09;;;11.34
24278;BMP280;12394;42.692;23.314;2023-05-07T01:07:37;95221.94;;;11.39
24278;BMP280;12394;42.692;23.314;2023-05-07T01:10:04;95226.44;;;11.39
24278;BMP280;12394;42.692;23.314;2023-05-07T01:12:30;95229.06;;;11.35
24278;BMP280;12394;42.692;23.314;2023-05-07T01:14:56;95230.19;;;11.34
24278;BMP280;12394;42.692;23.314;2023-05-07T01:17:22;95227.22;;;11.29
24278;BMP280;12394;42.692;23.314;2023-05-07T01:19:48;95225.75;;;11.24
24278;BMP280;12394;42.692;23.314;2023-05-07T01:22:15;95228.75;;;11.23
24278;BMP280;12394;42.692;23.314;2023-05-07T01:24:42;95235.13;;;11.18
24278;BMP280;12394;42.692;23.314;2023-05-07T01:27:07;95231.75;;;11.18
24278;BMP280;12394;42.692;23.314;2023-05-07T01:29:33;95224.66;;;11.18
24278;BMP280;12394;42.692;23.314;2023-05-07T01:32:00;95238.91;;;11.17
24278;BMP280;12394;42.692;23.314;2023-05-07T01:34:27;95235.13;;;11.18
24278;BMP280;12394;42.692;23.314;2023-05-07T01:36:54;95207.91;;;11.05
24278;BMP280;12394;42.692;23.314;2023-05-07T01:39:23;95226.94;;;11.12
24278;BMP280;12394;42.692;23.314;2023-05-07T01:41:49;95214.22;;;11.14
24278;BMP280;12394;42.692;23.314;2023-05-07T01:44:16;95217.22;;;11.09
24278;BMP280;12394;42.692;23.314;2023-05-07T01:46:42;95210.50;;;11.05
24278;BMP280;12394;42.692;23.314;2023-05-07T01:49:08;95213.13;;;11.05
24278;BMP280;12394;42.692;23.314;2023-05-07T01:51:34;95211.28;;;11.02
24278;BMP280;12394;42.692;23.314;2023-05-07T01:54:00;95183.66;;;10.94
24278;BMP280;12394;42.692;23.314;2023-05-07T01:56:26;95199.34;;;10.97
24278;BMP280;12394;42.692;23.314;2023-05-07T01:58:51;95204.56;;;10.97
24278;BMP280;12394;42.692;23.314;2023-05-07T02:01:17;95190.00;;;10.93
24278;BMP280;12394;42.692;23.314;2023-05-07T02:03:42;95194.88;;;10.91
24278;BMP280;12394;42.692;23.314;2023-05-07T02:06:08;95200.13;;;10.87
24278;BMP280;12394;42.692;23.314;2023-05-07T02:08:33;95183.00;;;10.76
24278;BMP280;12394;42.692;23.314;2023-05-07T02:10:59;95194.53;;;10.82
24278;BMP280;12394;42.692;23.314;2023-05-07T02:13:26;95188.56;;;10.81
24278;BMP280;12394;42.692;23.314;2023-05-07T02:15:52;95183.72;;;10.80
24278;BMP280;12394;42.692;23.314;2023-05-07T02:18:17;95182.97;;;10.72
24278;BMP280;12394;42.692;23.314;2023-05-07T02:20:43;95172.91;;;10.70
24278;BMP280;12394;42.692;23.314;2023-05-07T02:23:08;95169.56;;;10.66
24278;BMP280;12394;42.692;23.314;2023-05-07T02:25:33;95173.31;;;10.65
24278;BMP280;12394;42.692;23.314;2023-05-07T02:27:59;95185.59;;;10.72
24278;BMP280;12394;42.692;23.314;2023-05-07T02:30:25;95182.25;;;10.75
24278;BMP280;12394;42.692;23.314;2023-05-07T02:32:51;95178.88;;;10.67
24278;BMP280;12394;42.692;23.314;2023-05-07T02:35:16;95179.25;;;10.69
24278;BMP280;12394;42.692;23.314;2023-05-07T02:37:42;95164.34;;;10.66
24278;BMP280;12394;42.692;23.314;2023-05-07T02:40:08;95178.50;;;10.73
24278;BMP280;12394;42.692;23.314;2023-05-07T02:42:33;95177.75;;;10.68
24278;BMP280;12394;42.692;23.314;2023-05-07T02:44:59;95186.69;;;10.78
24278;BMP280;12394;42.692;23.314;2023-05-07T02:47:24;95182.25;;;10.72
24278;BMP280;12394;42.692;23.314;2023-05-07T02:49:53;95192.69;;;10.75
24278;BMP280;12394;42.692;23.314;2023-05-07T02:52:18;95192.72;;;10.72
24278;BMP280;12394;42.692;23.314;2023-05-07T02:54:43;95186.00;;;10.67
24278;BMP280;12394;42.692;23.314;2023-05-07T02:57:09;95191.97;;;10.67
24278;BMP280;12394;42.692;23.314;2023-05-07T02:59:34;95192.69;;;10.75
24278;BMP280;12394;42.692;23.314;2023-05-07T03:01:59;95195.31;;;10.79
24278;BMP280;12394;42.692;23.314;2023-05-07T03:04:25;95201.66;;;10.78
24278;BMP280;12394;42.692;23.314;2023-05-07T03:06:50;95189.72;;;10.73
24278;BMP280;12394;42.692;23.314;2023-05-07T03:09:16;95205.81;;;10.72
24278;BMP280;12394;42.692;23.314;2023-05-07T03:11:41;95207.28;;;10.69
24278;BMP280;12394;42.692;23.314;2023-05-07T03:14:07;95203.94;;;10.68
24278;BMP280;12394;42.692;23.314;2023-05-07T03:16:32;95213.25;;;10.77
24278;BMP280;12394;42.692;23.314;2023-05-07T03:18:58;95216.56;;;10.88
24278;BMP280;12394;42.692;23.314;2023-05-07T03:21:23;95209.91;;;10.76
24278;BMP280;12394;42.692;23.314;2023-05-07T03:23:49;95215.16;;;10.65
24278;BMP280;12394;42.692;23.314;2023-05-07T03:26:14;95215.56;;;10.60
24278;BMP280;12394;42.692;23.314;2023-05-07T03:28:40;95215.19;;;10.51
24278;BMP280;12394;42.692;23.314;2023-05-07T03:31:05;95214.47;;;10.44
24278;BMP280;12394;42.692;23.314;2023-05-07T03:33:33;95210.00;;;10.37
24278;BMP280;12394;42.692;23.314;2023-05-07T03:35:58;95218.22;;;10.32
24278;BMP280;12394;42.692;23.314;2023-05-07T03:38:24;95216.00;;;10.23
24278;BMP280;12394;42.692;23.314;2023-05-07T03:40:49;95221.59;;;10.18
24278;BMP280;12394;42.692;23.314;2023-05-07T03:43:15;95224.97;;;10.15
24278;BMP280;12394;42.692;23.314;2023-05-07T03:45:40;95217.47;;;10.14
24278;BMP280;12394;42.692;23.314;2023-05-07T03:48:05;95224.63;;;10.17
24278;BMP280;12394;42.692;23.314;2023-05-07T03:50:31;95231.72;;;10.16
24278;BMP280;12394;42.692;23.314;2023-05-07T03:52:56;95237.28;;;10.11
24278;BMP280;12394;42.692;23.314;2023-05-07T03:55:21;95236.53;;;10.14
24278;BMP280;12394;42.692;23.314;2023-05-07T03:57:47;95236.91;;;10.13
24278;BMP280;12394;42.692;23.314;2023-05-07T04:00:13;95206.31;;;9.89
24278;BMP280;12394;42.692;23.314;2023-05-07T04:02:38;95237.69;;;10.17
24278;BMP280;12394;42.692;23.314;2023-05-07T04:05:04;95248.50;;;10.19
24278;BMP280;12394;42.692;23.314;2023-05-07T04:07:30;95247.00;;;10.18
24278;BMP280;12394;42.692;23.314;2023-05-07T04:09:55;95245.13;;;10.15
24278;BMP280;12394;42.692;23.314;2023-05-07T04:12:20;95244.38;;;10.18
24278;BMP280;12394;42.692;23.314;2023-05-07T04:14:46;95268.28;;;10.27
24278;BMP280;12394;42.692;23.314;2023-05-07T04:17:11;95271.25;;;10.36
24278;BMP280;12394;42.692;23.314;2023-05-07T04:19:37;95271.66;;;10.38
24278;BMP280;12394;42.692;23.314;2023-05-07T04:22:02;95277.97;;;10.41
24278;BMP280;12394;42.692;23.314;2023-05-07T04:24:31;95275.75;;;10.46
24278;BMP280;12394;42.692;23.314;2023-05-07T04:26:57;95284.31;;;10.50
24278;BMP280;12394;42.692;23.314;2023-05-07T04:29:23;95275.75;;;10.53
24278;BMP280;12394;42.692;23.314;2023-05-07T04:31:48;95292.53;;;10.66
24278;BMP280;12394;42.692;23.314;2023-05-07T04:34:14;95283.19;;;10.69
24278;BMP280;12394;42.692;23.314;2023-05-07T04:36:39;95277.94;;;10.76
24278;BMP280;12394;42.692;23.314;2023-05-07T04:39:05;95276.47;;;10.72
24278;BMP280;12394;42.692;23.314;2023-05-07T04:41:31;95300.69;;;10.97
24278;BMP280;12394;42.692;23.314;2023-05-07T04:43:56;95281.59;;;10.96
24278;BMP280;12394;42.692;23.314;2023-05-07T04:46:24;95300.63;;;11.11
24278;BMP280;12394;42.692;23.314;2023-05-07T04:48:50;95297.25;;;11.14
24278;BMP280;12394;42.692;23.314;2023-05-07T04:51:15;95288.22;;;11.29
24278;BMP280;12394;42.692;23.314;2023-05-07T04:53:40;95297.91;;;11.39
24278;BMP280;12394;42.692;23.314;2023-05-07T04:56:06;95286.63;;;11.46
24278;BMP280;12394;42.692;23.314;2023-05-07T04:58:31;95295.53;;;11.59
24278;BMP280;12394;42.692;23.314;2023-05-07T05:00:58;95284.31;;;11.58
24278;BMP280;12394;42.692;23.314;2023-05-07T05:03:23;95289.06;;;11.85
24278;BMP280;12394;42.692;23.314;2023-05-07T05:05:50;95287.38;;;12.09
24278;BMP280;12394;42.692;23.314;2023-05-07T05:08:16;95293.94;;;12.34
24278;BMP280;12394;42.692;23.314;2023-05-07T05:10:42;95285.13;;;12.55
24278;BMP280;12394;42.692;23.314;2023-05-07T05:13:08;95296.25;;;12.70
24278;BMP280;12394;42.692;23.314;2023-05-07T05:15:34;95292.53;;;12.64
24278;BMP280;12394;42.692;23.314;2023-05-07T05:17:59;95293.69;;;12.63
24278;BMP280;12394;42.692;23.314;2023-05-07T05:20:25;95289.53;;;12.65
24278;BMP280;12394;42.692;23.314;2023-05-07T05:22:51;95292.50;;;12.71
24278;BMP280;12394;42.692;23.314;2023-05-07T05:25:16;95292.03;;;12.79
24278;BMP280;12394;42.692;23.314;2023-05-07T05:27:41;95295.31;;;12.87
24278;BMP280;12394;42.692;23.314;2023-05-07T05:30:07;95284.38;;;12.92
24278;BMP280;12394;42.692;23.314;2023-05-07T05:32:33;95302.97;;;13.08
24278;BMP280;12394;42.692;23.314;2023-05-07T05:34:58;95280.91;;;13.02
24278;BMP280;12394;42.692;23.314;2023-05-07T05:37:24;95289.00;;;13.18
24278;BMP280;12394;42.692;23.314;2023-05-07T05:39:50;95288.50;;;13.27
24278;BMP280;12394;42.692;23.314;2023-05-07T05:42:15;95299.16;;;13.47
24278;BMP280;12394;42.692;23.314;2023-05-07T05:44:40;95293.03;;;13.57
24278;BMP280;12394;42.692;23.314;2023-05-07T05:47:06;95304.13;;;13.68
24278;BMP280;12394;42.692;23.314;2023-05-07T05:49:33;95298.34;;;13.80
24278;BMP280;12394;42.692;23.314;2023-05-07T05:52:00;95295.59;;;13.87
24278;BMP280;12394;42.692;23.314;2023-05-07T05:54:26;95291.72;;;13.95
24278;BMP280;12394;42.692;23.314;2023-05-07T05:56:54;95300.97;;;14.07
24278;BMP280;12394;42.692;23.314;2023-05-07T05:59:20;95304.22;;;14.14
24278;BMP280;12394;42.692;23.314;2023-05-07T06:01:45;95298.28;;;14.34
24278;BMP280;12394;42.692;23.314;2023-05-07T06:04:11;95305.56;;;14.49
24278;BMP280;12394;42.692;23.314;2023-05-07T06:06:36;95304.38;;;14.54
24278;BMP280;12394;42.692;23.314;2023-05-07T06:09:02;95310.81;;;14.73
24278;BMP280;12394;42.692;23.314;2023-05-07T06:11:28;95311.47;;;14.80
24278;BMP280;12394;42.692;23.314;2023-05-07T06:13:53;95303.16;;;15.01
24278;BMP280;12394;42.692;23.314;2023-05-07T06:16:18;95302.81;;;14.99
24278;BMP280;12394;42.692;23.314;2023-05-07T06:18:44;95303.97;;;15.18
24278;BMP280;12394;42.692;23.314;2023-05-07T06:21:11;95301.59;;;15.24
24278;BMP280;12394;42.692;23.314;2023-05-07T06:23:37;95304.31;;;15.40
24278;BMP280;12394;42.692;23.314;2023-05-07T06:26:02;95300.78;;;15.46
24278;BMP280;12394;42.692;23.314;2023-05-07T06:28:27;95294.16;;;15.58
24278;BMP280;12394;42.692;23.314;2023-05-07T06:30:53;95281.50;;;15.49
24278;BMP280;12394;42.692;23.314;2023-05-07T06:33:18;95284.88;;;15.86
24278;BMP280;12394;42.692;23.314;2023-05-07T06:35:44;95282.25;;;15.86
24278;BMP280;12394;42.692;23.314;2023-05-07T06:38:10;95289.28;;;16.09
24278;BMP280;12394;42.692;23.314;2023-05-07T06:40:37;95283.50;;;16.14
24278;BMP280;12394;42.692;23.314;2023-05-07T06:43:02;95279.13;;;16.23
24278;BMP280;12394;42.692;23.314;2023-05-07T06:45:28;95276.16;;;16.37
24278;BMP280;12394;42.692;23.314;2023-05-07T06:47:53;95275.72;;;16.55
24278;BMP280;12394;42.692;23.314;2023-05-07T06:50:18;95277.81;;;16.93
24278;BMP280;12394;42.692;23.314;2023-05-07T06:52:44;95267.00;;;17.28
24278;BMP280;12394;42.692;23.314;2023-05-07T06:55:09;95272.44;;;17.50
24278;BMP280;12394;42.692;23.314;2023-05-07T06:57:36;95270.25;;;17.87
24278;BMP280;12394;42.692;23.314;2023-05-07T07:00:02;95268.22;;;17.78
24278;BMP280;12394;42.692;23.314;2023-05-07T07:02:27;95259.72;;;18.08
24278;BMP280;12394;42.692;23.314;2023-05-07T07:04:52;95265.09;;;18.43
24278;BMP280;12394;42.692;23.314;2023-05-07T07:07:18;95275.66;;;18.55
24278;BMP280;12394;42.692;23.314;2023-05-07T07:09:43;95254.25;;;18.50
24278;BMP280;12394;42.692;23.314;2023-05-07T07:12:09;95257.59;;;18.76
24278;BMP280;12394;42.692;23.314;2023-05-07T07:14:34;95265.47;;;19.10
24278;BMP280;12394;42.692;23.314;2023-05-07T07:17:00;95272.09;;;19.36
24278;BMP280;12394;42.692;23.314;2023-05-07T07:19:25;95259.13;;;19.60
24278;BMP280;12394;42.692;23.314;2023-05-07T07:21:51;95263.84;;;19.96
24278;BMP280;12394;42.692;23.314;2023-05-07T07:24:16;95264.81;;;20.20
24278;BMP280;12394;42.692;23.314;2023-05-07T07:26:46;95253.94;;;20.73
24278;BMP280;12394;42.692;23.314;2023-05-07T07:29:11;95259.25;;;20.91
24278;BMP280;12394;42.692;23.314;2023-05-07T07:31:37;95248.91;;;21.20
24278;BMP280;12394;42.692;23.314;2023-05-07T07:34:02;95255.59;;;21.91
24278;BMP280;12394;42.692;23.314;2023-05-07T07:36:27;95253.28;;;22.40
24278;BMP280;12394;42.692;23.314;2023-05-07T07:38:53;95263.75;;;23.06
24278;BMP280;12394;42.692;23.314;2023-05-07T07:41:19;95270.56;;;23.80
24278;BMP280;12394;42.692;23.314;2023-05-07T07:43:45;95267.88;;;24.91
24278;BMP280;12394;42.692;23.314;2023-05-07T07:46:11;95261.00;;;25.61
24278;BMP280;12394;42.692;23.314;2023-05-07T07:48:37;95264.34;;;26.25
24278;BMP280;12394;42.692;23.314;2023-05-07T07:51:02;95271.75;;;27.11
24278;BMP280;12394;42.692;23.314;2023-05-07T07:53:28;95265.94;;;27.68
24278;BMP280;12394;42.692;23.314;2023-05-07T07:55:53;95269.84;;;28.12
24278;BMP280;12394;42.692;23.314;2023-05-07T07:58:19;95269.66;;;28.62
24278;BMP280;12394;42.692;23.314;2023-05-07T08:00:44;95273.56;;;28.66
24278;BMP280;12394;42.692;23.314;2023-05-07T08:03:10;95264.97;;;28.79
24278;BMP280;12394;42.692;23.314;2023-05-07T08:05:35;95264.97;;;28.79
24278;BMP280;12394;42.692;23.314;2023-05-07T08:08:01;95251.75;;;29.16
24278;BMP280;12394;42.692;23.314;2023-05-07T08:10:27;95257.19;;;29.52
24278;BMP280;12394;42.692;23.314;2023-05-07T08:12:52;95257.94;;;29.77
24278;BMP280;12394;42.692;23.314;2023-05-07T08:15:17;95257.69;;;30.04
24278;BMP280;12394;42.692;23.314;2023-05-07T08:17:43;95253.19;;;30.61
24278;BMP280;12394;42.692;23.314;2023-05-07T08:20:09;95247.78;;;30.37
24278;BMP280;12394;42.692;23.314;2023-05-07T08:22:35;95250.63;;;30.87
24278;BMP280;12394;42.692;23.314;2023-05-07T08:25:01;95249.59;;;31.28
24278;BMP280;12394;42.692;23.314;2023-05-07T08:27:26;95249.09;;;31.11
24278;BMP280;12394;42.692;23.314;2023-05-07T08:29:52;95239.50;;;31.28
24278;BMP280;12394;42.692;23.314;2023-05-07T08:32:17;95245.44;;;31.59
24278;BMP280;12394;42.692;23.314;2023-05-07T08:34:43;95240.31;;;32.27
24278;BMP280;12394;42.692;23.314;2023-05-07T08:37:28;95229.81;;;32.23
24278;BMP280;12394;42.692;23.314;2023-05-07T08:39:54;95239.69;;;33.07
24278;BMP280;12394;42.692;23.314;2023-05-07T08:42:23;95236.13;;;33.53
24278;BMP280;12394;42.692;23.314;2023-05-07T08:44:49;95235.63;;;34.04
24278;BMP280;12394;42.692;23.314;2023-05-07T08:47:18;95240.06;;;34.51
24278;BMP280;12394;42.692;23.314;2023-05-07T08:49:44;95223.06;;;34.58
24278;BMP280;12394;42.692;23.314;2023-05-07T08:52:12;95225.19;;;34.95
24278;BMP280;12394;42.692;23.314;2023-05-07T08:54:37;95227.03;;;35.00
24278;BMP280;12394;42.692;23.314;2023-05-07T08:57:03;95224.72;;;36.18
24278;BMP280;12394;42.692;23.314;2023-05-07T08:59:29;95213.31;;;35.89
24278;BMP280;12394;42.692;23.314;2023-05-07T09:01:55;95215.31;;;35.51
24278;BMP280;12394;42.692;23.314;2023-05-07T09:04:21;95211.69;;;35.63
24278;BMP280;12394;42.692;23.314;2023-05-07T09:06:47;95214.88;;;36.30
24278;BMP280;12394;42.692;23.314;2023-05-07T09:09:16;95208.41;;;36.58
24278;BMP280;12394;42.692;23.314;2023-05-07T09:11:43;95213.28;;;37.07
24278;BMP280;12394;42.692;23.314;2023-05-07T09:14:09;95203.56;;;37.71
24278;BMP280;12394;42.692;23.314;2023-05-07T09:16:34;95203.13;;;38.16
24278;BMP280;12394;42.692;23.314;2023-05-07T09:18:59;95199.44;;;38.39
24278;BMP280;12394;42.692;23.314;2023-05-07T09:21:26;95202.00;;;38.81
24278;BMP280;12394;42.692;23.314;2023-05-07T09:23:53;95199.19;;;39.15
24278;BMP280;12394;42.692;23.314;2023-05-07T09:26:21;95191.69;;;41.77
24278;BMP280;12394;42.692;23.314;2023-05-07T09:28:47;95181.91;;;43.06
24278;BMP280;12394;42.692;23.314;2023-05-07T09:31:12;95180.78;;;41.27
24278;BMP280;12394;42.692;23.314;2023-05-07T09:33:38;95176.88;;;41.82
24278;BMP280;12394;42.692;23.314;2023-05-07T09:36:06;95180.72;;;41.46
24278;BMP280;12394;42.692;23.314;2023-05-07T09:38:33;95180.47;;;41.02
24278;BMP280;12394;42.692;23.314;2023-05-07T09:43:33;95167.88;;;41.08
24278;BMP280;12394;42.692;23.314;2023-05-07T09:46:02;95164.44;;;41.81
24278;BMP280;12394;42.692;23.314;2023-05-07T09:48:29;95155.75;;;41.33
24278;BMP280;12394;42.692;23.314;2023-05-07T09:50:56;95153.59;;;40.91
24278;BMP280;12394;42.692;23.314;2023-05-07T09:53:25;95160.09;;;40.95
24278;BMP280;12394;42.692;23.314;2023-05-07T09:55:52;95150.19;;;41.52
24278;BMP280;12394;42.692;23.314;2023-05-07T09:58:18;95152.97;;;44.50
24278;BMP280;12394;42.692;23.314;2023-05-07T10:00:44;95155.53;;;43.72
24278;BMP280;12394;42.692;23.314;2023-05-07T10:03:11;95154.66;;;43.93
24278;BMP280;12394;42.692;23.314;2023-05-07T10:05:37;95152.66;;;43.00
24278;BMP280;12394;42.692;23.314;2023-05-07T10:08:04;95152.59;;;41.26
24278;BMP280;12394;42.692;23.314;2023-05-07T10:10:32;95143.59;;;40.64
24278;BMP280;12394;42.692;23.314;2023-05-07T10:12:58;95142.13;;;40.54
24278;BMP280;12394;42.692;23.314;2023-05-07T10:15:24;95131.16;;;40.63
24278;BMP280;12394;42.692;23.314;2023-05-07T10:17:51;95135.38;;;40.35
24278;BMP280;12394;42.692;23.314;2023-05-07T10:20:18;95136.94;;;39.71
24278;BMP280;12394;42.692;23.314;2023-05-07T10:22:46;95126.69;;;38.09
24278;BMP280;12394;42.692;23.314;2023-05-07T10:25:27;95127.41;;;37.75
24278;BMP280;12394;42.692;23.314;2023-05-07T10:27:55;95130.63;;;38.15
24278;BMP280;12394;42.692;23.314;2023-05-07T10:33:10;95107.78;;;37.52
24278;BMP280;12394;42.692;23.314;2023-05-07T10:35:44;95116.50;;;38.36
24278;BMP280;12394;42.692;23.314;2023-05-07T10:38:10;95109.41;;;38.23
24278;BMP280;12394;42.692;23.314;2023-05-07T10:40:36;95110.19;;;36.98
24278;BMP280;12394;42.692;23.314;2023-05-07T10:43:03;95107.03;;;36.12
24278;BMP280;12394;42.692;23.314;2023-05-07T10:45:32;95091.91;;;34.72
24278;BMP280;12394;42.692;23.314;2023-05-07T10:48:14;95105.50;;;33.49
24278;BMP280;12394;42.692;23.314;2023-05-07T10:50:41;95100.34;;;32.55
24278;BMP280;12394;42.692;23.314;2023-05-07T10:55:47;95100.97;;;31.35
24278;BMP280;12394;42.692;23.314;2023-05-07T10:58:29;95092.81;;;30.77
24278;BMP280;12394;42.692;23.314;2023-05-07T11:01:02;95088.78;;;30.33
24278;BMP280;12394;42.692;23.314;2023-05-07T11:03:28;95091.13;;;30.05
24278;BMP280;12394;42.692;23.314;2023-05-07T11:06:13;95091.97;;;29.51
24278;BMP280;12394;42.692;23.314;2023-05-07T11:09:05;95095.38;;;29.52
24278;BMP280;12394;42.692;23.314;2023-05-07T11:11:50;95077.72;;;29.27
24278;BMP280;12394;42.692;23.314;2023-05-07T11:17:06;95100.66;;;28.44
24278;BMP280;12394;42.692;23.314;2023-05-07T11:19:51;95094.50;;;27.91
24278;BMP280;12394;42.692;23.314;2023-05-07T11:25:06;95074.88;;;27.27
24278;BMP280;12394;42.692;23.314;2023-05-07T11:27:32;95079.53;;;27.38
24278;BMP280;12394;42.692;23.314;2023-05-07T11:29:58;95087.59;;;27.32
24278;BMP280;12394;42.692;23.314;2023-05-07T11:32:26;95079.06;;;27.23
24278;BMP280;12394;42.692;23.314;2023-05-07T11:34:52;95078.59;;;26.91
24278;BMP280;12394;42.692;23.314;2023-05-07T11:37:19;95069.06;;;26.90
24278;BMP280;12394;42.692;23.314;2023-05-07T11:39:45;95074.69;;;26.92
24278;BMP280;12394;42.692;23.314;2023-05-07T11:42:30;95064.16;;;26.72
24278;BMP280;12394;42.692;23.314;2023-05-07T11:44:56;95054.66;;;26.54
24278;BMP280;12394;42.692;23.314;2023-05-07T11:47:21;95056.84;;;26.39
24278;BMP280;12394;42.692;23.314;2023-05-07T11:49:51;95065.34;;;26.21
24278;BMP280;12394;42.692;23.314;2023-05-07T11:52:18;95063.28;;;25.88
24278;BMP280;12394;42.692;23.314;2023-05-07T11:54:54;95067.22;;;25.50
24278;BMP280;12394;42.692;23.314;2023-05-07T11:57:23;95065.75;;;25.43
24278;BMP280;12394;42.692;23.314;2023-05-07T11:59:53;95048.28;;;25.11
24278;BMP280;12394;42.692;23.314;2023-05-07T12:02:19;95064.97;;;25.37
24278;BMP280;12394;42.692;23.314;2023-05-07T12:04:44;95055.75;;;25.44
24278;BMP280;12394;42.692;23.314;2023-05-07T12:07:16;95051.00;;;25.64
24278;BMP280;12394;42.692;23.314;2023-05-07T12:09:44;95041.53;;;25.75
24278;BMP280;12394;42.692;23.314;2023-05-07T12:12:10;95043.00;;;25.70
24278;BMP280;12394;42.692;23.314;2023-05-07T12:14:39;95029.81;;;25.61
24278;BMP280;12394;42.692;23.314;2023-05-07T12:17:05;95039.09;;;25.77
24278;BMP280;12394;42.692;23.314;2023-05-07T12:19:33;95045.97;;;25.83
24278;BMP280;12394;42.692;23.314;2023-05-07T12:21:59;95040.13;;;25.85
24278;BMP280;12394;42.692;23.314;2023-05-07T12:24:24;95005.47;;;25.70
24278;BMP280;12394;42.692;23.314;2023-05-07T12:26:50;95042.81;;;25.96
24278;BMP280;12394;42.692;23.314;2023-05-07T12:29:15;95035.47;;;25.85
24278;BMP280;12394;42.692;23.314;2023-05-07T12:31:42;95035.75;;;25.98
24278;BMP280;12394;42.692;23.314;2023-05-07T12:34:07;95027.97;;;26.00
24278;BMP280;12394;42.692;23.314;2023-05-07T12:36:40;95019.66;;;25.98
24278;BMP280;12394;42.692;23.314;2023-05-07T12:39:08;95018.72;;;26.01
24278;BMP280;12394;42.692;23.314;2023-05-07T12:41:57;95016.53;;;26.11
24278;BMP280;12394;42.692;23.314;2023-05-07T12:44:24;95008.97;;;26.15
24278;BMP280;12394;42.692;23.314;2023-05-07T12:46:51;95007.31;;;26.23
24278;BMP280;12394;42.692;23.314;2023-05-07T12:49:17;95007.53;;;26.20
24278;BMP280;12394;42.692;23.314;2023-05-07T12:51:43;94990.50;;;26.34
24278;BMP280;12394;42.692;23.314;2023-05-07T12:54:09;94998.06;;;26.46
24278;BMP280;12394;42.692;23.314;2023-05-07T12:56:37;94992.94;;;26.37
24278;BMP280;12394;42.692;23.314;2023-05-07T12:59:02;94993.66;;;26.43
24278;BMP280;12394;42.692;23.314;2023-05-07T13:01:29;94985.88;;;26.34
24278;BMP280;12394;42.692;23.314;2023-05-07T13:03:56;94982.66;;;26.19
24278;BMP280;12394;42.692;23.314;2023-05-07T13:06:25;94981.44;;;26.15
24278;BMP280;12394;42.692;23.314;2023-05-07T13:08:51;94978.75;;;26.20
24278;BMP280;12394;42.692;23.314;2023-05-07T13:11:16;94978.53;;;26.29
24278;BMP280;12394;42.692;23.314;2023-05-07T13:13:42;94973.41;;;26.37
24278;BMP280;12394;42.692;23.314;2023-05-07T13:16:09;94970.47;;;26.40
24278;BMP280;12394;42.692;23.314;2023-05-07T13:18:35;94980.00;;;26.47
24278;BMP280;12394;42.692;23.314;2023-05-07T13:21:01;94984.38;;;26.55
24278;BMP280;12394;42.692;23.314;2023-05-07T13:23:27;94979.03;;;26.55
24278;BMP280;12394;42.692;23.314;2023-05-07T13:25:52;94976.81;;;26.65
24278;BMP280;12394;42.692;23.314;2023-05-07T13:28:19;94974.38;;;26.67
24278;BMP280;12394;42.692;23.314;2023-05-07T13:30:45;94974.13;;;26.65
24278;BMP280;12394;42.692;23.314;2023-05-07T13:33:11;94972.41;;;26.73
24278;BMP280;12394;42.692;23.314;2023-05-07T13:35:36;94968.25;;;26.72
24278;BMP280;12394;42.692;23.314;2023-05-07T13:38:02;94967.78;;;26.68
24278;BMP280;12394;42.692;23.314;2023-05-07T13:40:28;94962.19;;;26.61
24278;BMP280;12394;42.692;23.314;2023-05-07T13:42:53;94972.16;;;26.71
24278;BMP280;12394;42.692;23.314;2023-05-07T13:45:19;94958.50;;;26.75
24278;BMP280;12394;42.692;23.314;2023-05-07T13:47:45;94965.81;;;26.91
24278;BMP280;12394;42.692;23.314;2023-05-07T13:50:11;94970.94;;;26.94
24278;BMP280;12394;42.692;23.314;2023-05-07T13:52:40;94972.91;;;26.88
24278;BMP280;12394;42.692;23.314;2023-05-07T13:55:06;94977.28;;;26.86
24278;BMP280;12394;42.692;23.314;2023-05-07T13:57:32;94975.34;;;26.92
24278;BMP280;12394;42.692;23.314;2023-05-07T13:59:57;94977.03;;;26.78
24278;BMP280;12394;42.692;23.314;2023-05-07T14:02:23;94976.09;;;26.70
24278;BMP280;12394;42.692;23.314;2023-05-07T14:04:48;94977.78;;;26.73
24278;BMP280;12394;42.692;23.314;2023-05-07T14:07:13;94958.03;;;26.48